Aeroporto :
LOGIN :

Iscrizione | Disclaimer

   EN    FR    IT 

 










Sommario :    VFR   VFR Marginale   IFR   IFR Intensivo   IFR Molto Intensivo
Visibilità : 
Base nubi : 
>= 8 km
>= 3000ft
5 / 8 km
1000 / 3000 ft
1500m / 5 km
500 / 1000 ft
800 / 1500m
200 / 500 ft
< 800m
< 200 ft
Simboli :   Temporali  Nebbia  Neve Forte  Precipitazioni Forti  Vento > 20 kt
SIGMETs :   Varie  Temporali  Ghiacco  Turbolenza  Onda orograficha  Ceneri Vulcaniche






- Altitudine del aeroporto : 256 ft
- Codice IATA : CFR


LFRK - Caen

ULTIMO METAR :
  • 270600Z AUTO 17016KT 9999 FEW030 SCT052 BKN066 17/15 Q1009 TEMPO 2000 RA BKN007 BKN015CB BECMG 20025G40KT

METARs OBSOLETI :
  • 270530Z AUTO 18017KT 9000 SCT024 SCT041 BKN066 17/16 Q1009 TEMPO 2000 RA BKN007 BKN015CB BECMG 20025G40KT
  • 270500Z AUTO 17015KT 9999 FEW032/// SCT046/// BKN088/// ///TCU 17/15 Q1009
  • 270430Z AUTO 17015KT 9999 FEW017/// SCT022/// BKN045/// ///TCU 17/15 Q1010
  • 270400Z AUTO 17012KT 9999 SCT017 BKN048 BKN054 17/15 Q1010
  • 270330Z AUTO 17014KT CAVOK 17/15 Q1010

TAF TAF LFRK
Valido dal 27 a 06 ore il 27 a 15 ore UTC


270500Z 2706/2715 18020G30KT 9999 BKN020
BECMG 2706/2707 20025G40KT
TEMPO 2706/2708 2000 RA BKN007 BKN015CB
BECMG 2708/2710 27015G30KT
PROB30
TEMPO 2708/2709 BKN010
PROB30
TEMPO 2710/2715 4000 SHRA BKN020TCU
Met : +33 2 31 26 68 11



MetMap, La meteo Aeronautica in un colpo d'occhio ! - Copyright ORBIFLY Dicembre 2007 - Disclaimer

ORBIFLY MET'MAP TEAM :

Programmazione e sviluppo : Alexandra Zaïnal
Concezione : Baudouin d'Aumeries
Aiuto per la programmazione : Marc-Olivier Méhu
Supporto tecnico e logistico : Manuel Goepfert
Aiuto per la traduzione : Arnaldo La Scala

Contatto : metmap@orbifly.com




FONTI E CREDITI :

   NOAA